Time;durP1;ratioP1;P1;durP2;ratioP2;P2;SDS_P1;SDS_P2;PMS_P1;PMS_P2;Temp;Humidity;BMP_temperature;BMP_pressure;BME280_temperature;BME280_humidity;BME280_pressure;Samples;Min_cycle;Max_cycle;Signal;HPM_P1;HPM_P2
2021/07/06 00:01:36;;;;;;;2.67;1.95;;;;;;;;;;5093291;28;20024;-57
2021/07/06 00:04:02;;;;;;;3.40;2.05;;;;;;;;;;5093681;28;20165;-57
2021/07/06 00:06:28;;;;;;;3.80;3.05;;;;;;;;;;5093590;28;20021;-57
2021/07/06 00:08:56;;;;;;;3.85;2.65;;;;;;;;;;5093158;28;20031;-57
2021/07/06 00:11:22;;;;;;;3.70;2.10;;;;;;;;;;5093146;28;20437;-57
2021/07/06 00:13:48;;;;;;;3.95;2.20;;;;;;;;;;5093808;28;20109;-57
2021/07/06 00:16:14;;;;;;;3.88;2.47;;;;;;;;;;5092802;28;20120;-57
2021/07/06 00:18:41;;;;;;;3.00;2.22;;;;;;;;;;5093301;28;20454;-57
2021/07/06 00:21:11;;;;;;;3.67;2.38;;;;;;;;;;5092881;28;20127;-57
2021/07/06 00:23:38;;;;;;;4.35;2.17;;;;;;;;;;5092422;28;20044;-58
2021/07/06 00:26:04;;;;;;;3.35;2.10;;;;;;;;;;5092433;28;20133;-58
2021/07/06 00:28:30;;;;;;;2.72;1.90;;;;;;;;;;5092917;28;20107;-58
2021/07/06 00:30:57;;;;;;;2.90;1.98;;;;;;;;;;5094197;28;20073;-58
2021/07/06 00:33:23;;;;;;;3.55;1.83;;;;;;;;;;5093911;28;20032;-58
2021/07/06 00:35:49;;;;;;;3.88;2.50;;;;;;;;;;5093619;28;20366;-57
2021/07/06 00:38:15;;;;;;;4.38;1.73;;;;;;;;;;5094019;28;20021;-58
2021/07/06 00:40:41;;;;;;;4.35;2.75;;;;;;;;;;5093482;28;20020;-58
2021/07/06 00:43:07;;;;;;;3.83;1.77;;;;;;;;;;5092542;28;20369;-58
2021/07/06 00:45:33;;;;;;;2.05;1.42;;;;;;;;;;5093126;28;20052;-58
2021/07/06 00:48:02;;;;;;;3.03;2.00;;;;;;;;;;5093529;28;20023;-58
2021/07/06 00:50:29;;;;;;;3.20;1.80;;;;;;;;;;5093832;28;20016;-58
2021/07/06 00:52:55;;;;;;;3.25;2.13;;;;;;;;;;5097123;28;20016;-58
2021/07/06 00:55:21;;;;;;;3.15;1.77;;;;;;;;;;5097189;28;20027;-57
2021/07/06 00:57:48;;;;;;;3.72;2.28;;;;;;;;;;5097415;28;20401;-58
2021/07/06 01:00:16;;;;;;;3.15;2.03;;;;;;;;;;5095904;28;20021;-58
2021/07/06 01:02:42;;;;;;;2.67;1.88;;;;;;;;;;5097356;28;20357;-58
2021/07/06 01:05:14;;;;;;;2.35;1.65;;;;;;;;;;5095805;28;20051;-58
2021/07/06 01:07:40;;;;;;;3.05;1.98;;;;;;;;;;5097934;28;20059;-58
2021/07/06 01:10:07;;;;;;;3.17;1.75;;;;;;;;;;5097106;28;20056;-58
2021/07/06 01:12:33;;;;;;;4.20;2.60;;;;;;;;;;5095965;28;20489;-58
2021/07/06 01:15:00;;;;;;;2.90;1.58;;;;;;;;;;5096671;28;20458;-58
2021/07/06 01:17:27;;;;;;;3.45;2.03;;;;;;;;;;5096150;28;20020;-58
2021/07/06 01:19:53;;;;;;;5.85;1.95;;;;;;;;;;5097375;28;20028;-58
2021/07/06 01:22:27;;;;;;;3.28;1.65;;;;;;;;;;5096871;28;20024;-58
2021/07/06 01:24:53;;;;;;;4.53;2.30;;;;;;;;;;5096751;28;20036;-58
2021/07/06 01:27:19;;;;;;;2.72;1.67;;;;;;;;;;5095440;28;20028;-58
2021/07/06 01:29:45;;;;;;;3.67;2.13;;;;;;;;;;5096667;28;20046;-58
2021/07/06 01:32:11;;;;;;;3.78;2.08;;;;;;;;;;5095909;28;20020;-58
2021/07/06 01:34:37;;;;;;;3.13;2.05;;;;;;;;;;5095922;28;20032;-58
2021/07/06 01:37:03;;;;;;;3.67;1.83;;;;;;;;;;5096160;28;20026;-58
2021/07/06 01:39:30;;;;;;;3.63;2.47;;;;;;;;;;5096430;28;20020;-58
2021/07/06 01:41:56;;;;;;;2.97;1.77;;;;;;;;;;5097051;28;20099;-58
2021/07/06 01:44:23;;;;;;;2.70;1.60;;;;;;;;;;5095049;28;20059;-58
2021/07/06 01:46:49;;;;;;;3.47;1.90;;;;;;;;;;5095126;28;20038;-58
2021/07/06 01:49:16;;;;;;;2.95;2.15;;;;;;;;;;5096602;28;20028;-58
2021/07/06 01:51:43;;;;;;;2.65;1.90;;;;;;;;;;5096305;28;20024;-58
2021/07/06 01:54:09;;;;;;;2.70;1.80;;;;;;;;;;5094882;28;20035;-58
2021/07/06 01:56:36;;;;;;;5.03;2.45;;;;;;;;;;5094868;28;20065;-58
2021/07/06 01:59:02;;;;;;;3.25;1.98;;;;;;;;;;5096067;28;20020;-58
2021/07/06 02:01:28;;;;;;;4.35;2.17;;;;;;;;;;5096592;28;20415;-58
2021/07/06 02:03:54;;;;;;;4.25;1.85;;;;;;;;;;5096112;28;20081;-58
2021/07/06 02:06:20;;;;;;;2.92;1.92;;;;;;;;;;5095971;28;20099;-58
2021/07/06 02:08:46;;;;;;;2.63;1.70;;;;;;;;;;5095718;28;20070;-58
2021/07/06 02:11:12;;;;;;;5.40;1.60;;;;;;;;;;5096482;28;20434;-57
2021/07/06 02:13:38;;;;;;;2.22;1.67;;;;;;;;;;5095772;28;20020;-58
2021/07/06 02:16:05;;;;;;;3.40;1.85;;;;;;;;;;5095692;28;20053;-58
2021/07/06 02:18:34;;;;;;;2.63;2.03;;;;;;;;;;5095693;28;20020;-58
2021/07/06 02:21:00;;;;;;;2.72;1.60;;;;;;;;;;5095967;28;20023;-57
2021/07/06 02:23:27;;;;;;;3.08;2.20;;;;;;;;;;5095583;28;20028;-58
2021/07/06 02:25:53;;;;;;;4.00;2.10;;;;;;;;;;5094583;28;20036;-58
2021/07/06 02:28:20;;;;;;;4.93;1.85;;;;;;;;;;5096060;28;20024;-58
2021/07/06 02:30:49;;;;;;;3.10;1.67;;;;;;;;;;5095492;28;20034;-58
2021/07/06 02:33:15;;;;;;;3.00;2.10;;;;;;;;;;5095469;28;20354;-58
2021/07/06 02:35:42;;;;;;;2.25;1.45;;;;;;;;;;5095855;28;20017;-58
2021/07/06 02:38:08;;;;;;;2.90;2.03;;;;;;;;;;5095354;28;20425;-58
2021/07/06 02:40:34;;;;;;;4.88;1.73;;;;;;;;;;5095355;28;20389;-58
2021/07/06 02:43:00;;;;;;;2.20;1.60;;;;;;;;;;5094005;28;20523;-58
2021/07/06 02:45:27;;;;;;;2.80;1.83;;;;;;;;;;5095515;28;20099;-58
2021/07/06 02:47:53;;;;;;;5.10;1.85;;;;;;;;;;5095468;28;20114;-58
2021/07/06 02:50:21;;;;;;;2.78;1.60;;;;;;;;;;5095101;28;20020;-58
2021/07/06 02:52:47;;;;;;;2.10;1.30;;;;;;;;;;5095140;28;20115;-58
2021/07/06 02:55:14;;;;;;;3.72;2.28;;;;;;;;;;5095038;28;20024;-58
2021/07/06 02:57:40;;;;;;;2.33;1.52;;;;;;;;;;5076964;28;20048;-58
2021/07/06 03:00:09;;;;;;;2.35;1.60;;;;;;;;;;5093828;28;20052;-58
2021/07/06 03:02:36;;;;;;;2.20;1.60;;;;;;;;;;5094779;28;20039;-58
2021/07/06 03:05:02;;;;;;;5.15;2.00;;;;;;;;;;5094790;28;20078;-58
2021/07/06 03:07:28;;;;;;;3.05;1.92;;;;;;;;;;5094792;28;20030;-58
2021/07/06 03:09:54;;;;;;;2.50;1.77;;;;;;;;;;5094906;28;20047;-58
2021/07/06 03:12:20;;;;;;;6.32;2.13;;;;;;;;;;5094705;28;20032;-57
2021/07/06 03:14:46;;;;;;;4.10;2.42;;;;;;;;;;5093983;28;20036;-58
2021/07/06 03:17:12;;;;;;;4.35;2.33;;;;;;;;;;5095083;28;20017;-58
2021/07/06 03:19:38;;;;;;;2.53;2.10;;;;;;;;;;5094224;28;20020;-58
2021/07/06 03:22:04;;;;;;;3.25;2.42;;;;;;;;;;5094879;28;20024;-58
2021/07/06 03:24:30;;;;;;;2.72;2.00;;;;;;;;;;5093410;28;20127;-58
2021/07/06 03:26:56;;;;;;;3.67;2.03;;;;;;;;;;5094424;28;20029;-57
2021/07/06 03:29:22;;;;;;;3.08;2.05;;;;;;;;;;5094060;28;20027;-58
2021/07/06 03:31:48;;;;;;;3.35;1.77;;;;;;;;;;5094863;28;20435;-58
2021/07/06 03:34:14;;;;;;;2.65;1.80;;;;;;;;;;5093089;28;20028;-58
2021/07/06 03:36:40;;;;;;;3.58;2.05;;;;;;;;;;5094314;28;20020;-57
2021/07/06 03:39:06;;;;;;;3.05;1.80;;;;;;;;;;5094236;28;20028;-58
2021/07/06 03:41:32;;;;;;;4.18;2.00;;;;;;;;;;5094795;28;20020;-58
2021/07/06 03:43:58;;;;;;;2.60;1.67;;;;;;;;;;5092722;28;20478;-58
2021/07/06 03:46:26;;;;;;;2.30;1.60;;;;;;;;;;5093422;28;20024;-58
2021/07/06 03:48:52;;;;;;;2.63;1.73;;;;;;;;;;5094204;28;20016;-58
2021/07/06 03:51:18;;;;;;;3.80;1.98;;;;;;;;;;5093203;28;20047;-58
2021/07/06 03:53:44;;;;;;;5.38;2.15;;;;;;;;;;5093020;28;20028;-58
2021/07/06 03:56:10;;;;;;;1.77;1.33;;;;;;;;;;5094513;28;20016;-57
2021/07/06 03:58:36;;;;;;;3.85;2.10;;;;;;;;;;5093636;28;20031;-58
2021/07/06 04:01:03;;;;;;;3.15;1.83;;;;;;;;;;5093665;28;20016;-58
2021/07/06 04:03:29;;;;;;;3.10;2.08;;;;;;;;;;5093919;28;20038;-58
2021/07/06 04:05:54;;;;;;;4.25;2.25;;;;;;;;;;5093859;28;20052;-57
2021/07/06 04:08:21;;;;;;;1.83;1.45;;;;;;;;;;5076248;28;20060;-58
2021/07/06 04:10:47;;;;;;;2.70;2.05;;;;;;;;;;5093676;28;20106;-58
2021/07/06 04:13:13;;;;;;;2.67;1.98;;;;;;;;;;5092551;28;20067;-58
2021/07/06 04:15:39;;;;;;;3.20;1.65;;;;;;;;;;5093850;28;20049;-58
2021/07/06 04:18:05;;;;;;;2.30;1.55;;;;;;;;;;5093838;28;20035;-58
2021/07/06 04:20:33;;;;;;;4.53;2.22;;;;;;;;;;5093770;28;20062;-57
2021/07/06 04:23:01;;;;;;;2.72;1.83;;;;;;;;;;5094232;28;20547;-57
2021/07/06 04:25:27;;;;;;;1.95;1.55;;;;;;;;;;5095051;28;20062;-58
2021/07/06 04:27:53;;;;;;;3.28;1.92;;;;;;;;;;5098498;28;20362;-58
2021/07/06 04:30:19;;;;;;;3.10;1.92;;;;;;;;;;5098155;28;20025;-58
2021/07/06 04:32:46;;;;;;;2.95;1.65;;;;;;;;;;5097595;28;20483;-58
2021/07/06 04:35:12;;;;;;;2.78;1.98;;;;;;;;;;5098061;28;20103;-58
2021/07/06 04:37:39;;;;;;;2.45;1.75;;;;;;;;;;5097645;28;20028;-58
2021/07/06 04:40:05;;;;;;;3.03;1.77;;;;;;;;;;5098167;28;20025;-58
2021/07/06 04:42:31;;;;;;;2.38;1.50;;;;;;;;;;5097667;28;20476;-57
2021/07/06 04:44:57;;;;;;;3.08;1.92;;;;;;;;;;5097978;28;20035;-58
2021/07/06 04:47:24;;;;;;;2.28;1.70;;;;;;;;;;5097424;28;20016;-58
2021/07/06 04:49:53;;;;;;;3.22;1.67;;;;;;;;;;5097897;28;20047;-58
2021/07/06 04:52:19;;;;;;;4.57;1.65;;;;;;;;;;5097500;28;20149;-58
2021/07/06 04:54:45;;;;;;;2.15;1.58;;;;;;;;;;5097405;28;20023;-58
2021/07/06 04:57:11;;;;;;;4.80;1.73;;;;;;;;;;5096079;28;20067;-58
2021/07/06 04:59:37;;;;;;;2.05;1.48;;;;;;;;;;5097310;28;20031;-58
2021/07/06 05:02:04;;;;;;;3.97;1.70;;;;;;;;;;5097775;28;20032;-58
2021/07/06 05:04:36;;;;;;;3.15;2.00;;;;;;;;;;5097429;28;20054;-58
2021/07/06 05:07:02;;;;;;;3.78;1.73;;;;;;;;;;5095552;28;20115;-58
2021/07/06 05:09:28;;;;;;;2.03;1.40;;;;;;;;;;5097139;28;20056;-58
2021/07/06 05:11:54;;;;;;;2.42;1.60;;;;;;;;;;5096228;28;20031;-58
2021/07/06 05:14:20;;;;;;;2.58;1.55;;;;;;;;;;5096989;28;20469;-58
2021/07/06 05:16:46;;;;;;;3.10;1.35;;;;;;;;;;5096898;28;20016;-58
2021/07/06 05:19:12;;;;;;;3.25;1.30;;;;;;;;;;5097480;28;20051;-58
2021/07/06 05:21:39;;;;;;;3.20;1.70;;;;;;;;;;5096860;28;20462;-58
2021/07/06 05:24:05;;;;;;;2.20;1.30;;;;;;;;;;5097111;28;20461;-58
2021/07/06 05:26:31;;;;;;;2.67;1.42;;;;;;;;;;5095314;28;20032;-58
2021/07/06 05:28:57;;;;;;;2.72;1.05;;;;;;;;;;5097260;28;20032;-58
2021/07/06 05:31:23;;;;;;;2.45;1.40;;;;;;;;;;5097485;28;20024;-58
2021/07/06 05:33:49;;;;;;;5.35;1.33;;;;;;;;;;5096581;28;20028;-58
2021/07/06 05:36:15;;;;;;;2.60;1.55;;;;;;;;;;5095282;28;20027;-58
2021/07/06 05:38:44;;;;;;;2.70;1.63;;;;;;;;;;5096437;28;20054;-58
2021/07/06 05:41:12;;;;;;;2.50;1.38;;;;;;;;;;5095557;28;20024;-58
2021/07/06 05:43:38;;;;;;;5.45;1.50;;;;;;;;;;5096294;28;20027;-58
2021/07/06 05:46:04;;;;;;;1.67;1.05;;;;;;;;;;5096224;28;20024;-58
2021/07/06 05:48:31;;;;;;;1.73;1.25;;;;;;;;;;5096148;28;20351;-58
2021/07/06 05:50:57;;;;;;;2.88;1.40;;;;;;;;;;5095588;28;20020;-58
2021/07/06 05:53:23;;;;;;;3.83;1.85;;;;;;;;;;5095125;28;20371;-58
2021/07/06 05:55:52;;;;;;;2.75;1.25;;;;;;;;;;5096108;28;20024;-58
2021/07/06 05:58:18;;;;;;;2.28;1.10;;;;;;;;;;5096119;28;20023;-58
2021/07/06 06:00:45;;;;;;;1.67;0.98;;;;;;;;;;5096017;28;20030;-58
2021/07/06 06:03:11;;;;;;;5.97;1.33;;;;;;;;;;5095961;28;20042;-58
2021/07/06 06:05:38;;;;;;;2.65;1.48;;;;;;;;;;5095815;28;20020;-58
2021/07/06 06:08:04;;;;;;;2.00;1.15;;;;;;;;;;5095877;28;20027;-57
2021/07/06 06:10:30;;;;;;;1.75;1.17;;;;;;;;;;5095668;28;20085;-57
2021/07/06 06:12:56;;;;;;;2.83;1.15;;;;;;;;;;5094537;28;20035;-57
2021/07/06 06:15:22;;;;;;;4.55;1.52;;;;;;;;;;5095781;28;20035;-58
2021/07/06 06:17:49;;;;;;;3.53;1.23;;;;;;;;;;5096249;28;20024;-58
2021/07/06 06:20:15;;;;;;;3.28;1.65;;;;;;;;;;5095318;28;20023;-58
2021/07/06 06:22:42;;;;;;;4.53;1.58;;;;;;;;;;5096271;28;20041;-57
2021/07/06 06:25:08;;;;;;;4.38;1.70;;;;;;;;;;5094163;28;20024;-58
2021/07/06 06:27:34;;;;;;;2.00;0.80;;;;;;;;;;5096029;28;20103;-58
2021/07/06 06:30:00;;;;;;;4.47;1.55;;;;;;;;;;5095865;28;20039;-58
2021/07/06 06:32:26;;;;;;;1.55;0.98;;;;;;;;;;5095818;28;20058;-58
2021/07/06 06:34:52;;;;;;;3.28;1.80;;;;;;;;;;5095244;28;20439;-58
2021/07/06 06:37:19;;;;;;;2.63;1.60;;;;;;;;;;5094930;28;20118;-58
2021/07/06 06:39:45;;;;;;;4.50;1.40;;;;;;;;;;5095398;28;20466;-58
2021/07/06 06:42:11;;;;;;;2.92;0.90;;;;;;;;;;5096037;28;20031;-58
2021/07/06 06:44:38;;;;;;;5.57;1.85;;;;;;;;;;5095365;28;20032;-58
2021/07/06 06:47:04;;;;;;;3.85;1.50;;;;;;;;;;5095443;28;20343;-58
2021/07/06 06:49:30;;;;;;;1.80;0.88;;;;;;;;;;5094667;28;20020;-58
2021/07/06 06:51:59;;;;;;;2.53;1.20;;;;;;;;;;5095225;28;20111;-58
2021/07/06 06:54:25;;;;;;;1.70;1.17;;;;;;;;;;5095068;28;20054;-58
2021/07/06 06:56:51;;;;;;;4.10;1.08;;;;;;;;;;5093739;28;20024;-58
2021/07/06 06:59:17;;;;;;;9.70;1.77;;;;;;;;;;5093714;28;20111;-58
2021/07/06 07:01:44;;;;;;;1.70;1.27;;;;;;;;;;5095462;28;20420;-58
2021/07/06 07:04:17;;;;;;;1.23;0.70;;;;;;;;;;5093403;28;20039;-58
2021/07/06 07:06:43;;;;;;;1.15;0.57;;;;;;;;;;5095602;28;20040;-58
2021/07/06 07:09:10;;;;;;;3.33;1.10;;;;;;;;;;5093049;28;20066;-59
2021/07/06 07:11:44;;;;;;;2.38;1.00;;;;;;;;;;5111936;27;20396;-58
2021/07/06 07:14:10;;;;;;;1.65;0.85;;;;;;;;;;5111587;28;20082;-58
2021/07/06 07:16:36;;;;;;;3.55;0.90;;;;;;;;;;5111365;28;20499;-58
2021/07/06 07:19:02;;;;;;;2.40;0.88;;;;;;;;;;5110863;28;20114;-58
2021/07/06 07:21:30;;;;;;;1.75;0.70;;;;;;;;;;5110817;28;20089;-58
2021/07/06 07:23:56;;;;;;;1.85;0.73;;;;;;;;;;5110209;28;20028;-58
2021/07/06 07:26:22;;;;;;;3.28;0.80;;;;;;;;;;5111663;28;20031;-58
2021/07/06 07:28:48;;;;;;;1.08;0.50;;;;;;;;;;5111508;28;20033;-58
2021/07/06 07:31:14;;;;;;;2.30;0.90;;;;;;;;;;5111725;28;20085;-58
2021/07/06 07:33:40;;;;;;;1.75;0.75;;;;;;;;;;5111028;28;20482;-58
2021/07/06 07:36:06;;;;;;;1.80;0.80;;;;;;;;;;5111190;28;20069;-58
2021/07/06 07:38:32;;;;;;;1.42;0.47;;;;;;;;;;5111455;28;20436;-58
2021/07/06 07:40:58;;;;;;;1.40;0.82;;;;;;;;;;5111494;28;20027;-58
2021/07/06 07:43:24;;;;;;;1.23;0.52;;;;;;;;;;5111722;28;20028;-58
2021/07/06 07:45:50;;;;;;;2.00;0.77;;;;;;;;;;5110705;28;20027;-58
2021/07/06 07:48:16;;;;;;;1.63;0.70;;;;;;;;;;5111314;28;20106;-58
2021/07/06 07:50:42;;;;;;;1.77;1.02;;;;;;;;;;5111268;28;20089;-58
2021/07/06 07:53:08;;;;;;;2.38;1.05;;;;;;;;;;5110221;28;20031;-58
2021/07/06 07:55:34;;;;;;;1.35;0.60;;;;;;;;;;5110895;28;20016;-58
2021/07/06 07:58:00;;;;;;;1.77;0.95;;;;;;;;;;5110885;28;20024;-58
2021/07/06 08:00:26;;;;;;;1.33;0.60;;;;;;;;;;5110746;28;20479;-58
2021/07/06 08:02:52;;;;;;;1.52;0.90;;;;;;;;;;5111444;28;20039;-58
2021/07/06 08:05:18;;;;;;;2.15;1.05;;;;;;;;;;5110743;28;20102;-58
2021/07/06 08:07:45;;;;;;;1.90;0.98;;;;;;;;;;5111001;28;20028;-58
2021/07/06 08:10:13;;;;;;;1.20;0.68;;;;;;;;;;5110356;28;20052;-58
2021/07/06 08:12:39;;;;;;;2.78;0.80;;;;;;;;;;5111372;28;20480;-58
2021/07/06 08:15:05;;;;;;;1.45;0.75;;;;;;;;;;5110186;28;20441;-59
2021/07/06 08:17:31;;;;;;;2.70;0.88;;;;;;;;;;5110224;28;20545;-58
2021/07/06 08:19:59;;;;;;;1.83;0.70;;;;;;;;;;5110498;28;20024;-58
2021/07/06 08:22:25;;;;;;;2.00;0.75;;;;;;;;;;5101098;28;20043;-58
2021/07/06 08:24:52;;;;;;;1.15;0.60;;;;;;;;;;5096891;28;20020;-58
2021/07/06 08:27:18;;;;;;;1.48;0.85;;;;;;;;;;5095554;28;20372;-58
2021/07/06 08:29:44;;;;;;;1.10;0.60;;;;;;;;;;5096611;28;20097;-58
2021/07/06 08:32:10;;;;;;;1.35;0.63;;;;;;;;;;5097293;28;20127;-58
2021/07/06 08:34:36;;;;;;;4.22;0.77;;;;;;;;;;5096629;28;20185;-58
2021/07/06 08:37:02;;;;;;;2.00;1.30;;;;;;;;;;5096539;28;20179;-58
2021/07/06 08:39:28;;;;;;;1.13;0.47;;;;;;;;;;5096637;28;20090;-58
2021/07/06 08:41:54;;;;;;;2.28;0.75;;;;;;;;;;5097411;28;20032;-58
2021/07/06 08:44:23;;;;;;;1.30;0.65;;;;;;;;;;5096515;28;20050;-59
2021/07/06 08:46:50;;;;;;;2.33;1.17;;;;;;;;;;5096647;28;20373;-58
2021/07/06 08:49:18;;;;;;;4.13;1.13;;;;;;;;;;5096284;28;20054;-58
2021/07/06 08:51:47;;;;;;;1.65;0.80;;;;;;;;;;5096980;28;20101;-59
2021/07/06 08:54:13;;;;;;;1.48;0.90;;;;;;;;;;5096749;28;20449;-59
2021/07/06 08:56:39;;;;;;;1.40;0.57;;;;;;;;;;5096761;28;20115;-58
2021/07/06 08:59:05;;;;;;;1.15;0.55;;;;;;;;;;5096158;28;20026;-59
2021/07/06 09:01:31;;;;;;;1.33;0.63;;;;;;;;;;5096472;28;20381;-58
2021/07/06 09:03:58;;;;;;;2.35;1.10;;;;;;;;;;5096704;28;20107;-58
2021/07/06 09:06:25;;;;;;;1.48;0.70;;;;;;;;;;5095742;28;20388;-59
2021/07/06 09:08:54;;;;;;;1.27;0.47;;;;;;;;;;5095687;28;20116;-59
2021/07/06 09:11:21;;;;;;;1.63;0.80;;;;;;;;;;5096368;28;20047;-59
2021/07/06 09:13:47;;;;;;;1.23;0.70;;;;;;;;;;5095924;28;20028;-59
2021/07/06 09:16:20;;;;;;;1.30;0.70;;;;;;;;;;5096078;28;20028;-58
2021/07/06 09:18:49;;;;;;;1.42;0.82;;;;;;;;;;5095773;28;20111;-58
2021/07/06 09:21:16;;;;;;;2.05;1.10;;;;;;;;;;5096334;28;20069;-59
2021/07/06 09:23:43;;;;;;;1.27;0.63;;;;;;;;;;5096496;28;20058;-58
2021/07/06 09:26:11;;;;;;;1.42;0.60;;;;;;;;;;5095708;28;20024;-59
2021/07/06 09:28:39;;;;;;;1.65;0.75;;;;;;;;;;5095647;28;20069;-59
2021/07/06 09:31:18;;;;;;;1.63;1.00;;;;;;;;;;5095554;28;20032;-59
2021/07/06 09:33:52;;;;;;;2.10;1.30;;;;;;;;;;5094214;28;20028;-58
2021/07/06 09:36:27;;;;;;;2.40;1.23;;;;;;;;;;5095494;28;20487;-58
2021/07/06 09:39:00;;;;;;;3.33;1.30;;;;;;;;;;5095425;28;20093;-58
2021/07/06 09:41:26;;;;;;;8.52;1.50;;;;;;;;;;5094659;28;20024;-58
2021/07/06 09:43:52;;;;;;;3.40;1.30;;;;;;;;;;5095237;28;20403;-58
2021/07/06 09:46:18;;;;;;;3.58;1.50;;;;;;;;;;5095285;28;20028;-58
2021/07/06 09:48:47;;;;;;;4.70;1.10;;;;;;;;;;5095125;28;20457;-58
2021/07/06 09:51:15;;;;;;;2.35;1.17;;;;;;;;;;5095625;28;20051;-58
2021/07/06 09:53:41;;;;;;;1.25;0.80;;;;;;;;;;5095771;28;20028;-58
2021/07/06 09:56:13;;;;;;;1.85;0.98;;;;;;;;;;5095099;28;20028;-58
2021/07/06 09:58:51;;;;;;;1.50;0.80;;;;;;;;;;5095041;28;20035;-58
2021/07/06 10:01:17;;;;;;;1.85;1.00;;;;;;;;;;5094956;28;20077;-58
2021/07/06 10:03:44;;;;;;;1.20;0.60;;;;;;;;;;5094871;28;20370;-58
2021/07/06 10:06:11;;;;;;;0.95;0.40;;;;;;;;;;5094790;28;20465;-58
2021/07/06 10:08:37;;;;;;;2.33;0.70;;;;;;;;;;5077562;28;20024;-57
2021/07/06 10:11:03;;;;;;;0.60;0.28;;;;;;;;;;5095261;28;20117;-57
2021/07/06 10:13:30;;;;;;;2.35;0.65;;;;;;;;;;5094709;28;20126;-58
2021/07/06 10:15:56;;;;;;;0.95;0.40;;;;;;;;;;5093468;28;20373;-58
2021/07/06 10:18:22;;;;;;;1.02;0.40;;;;;;;;;;5094570;28;20027;-58
2021/07/06 10:20:48;;;;;;;1.13;0.40;;;;;;;;;;5094879;28;20028;-58
2021/07/06 10:23:14;;;;;;;0.47;0.20;;;;;;;;;;5094646;28;20024;-58
2021/07/06 10:25:41;;;;;;;0.43;0.20;;;;;;;;;;5094487;28;20012;-58
2021/07/06 10:28:08;;;;;;;1.15;0.43;;;;;;;;;;5094505;28;20027;-58
2021/07/06 10:30:44;;;;;;;0.45;0.20;;;;;;;;;;5094091;28;20409;-58
2021/07/06 10:33:14;;;;;;;0.82;0.30;;;;;;;;;;5094462;28;20093;-58
2021/07/06 10:35:40;;;;;;;;;;;;;;;;;;5095120;28;20056;-58
2021/07/06 10:38:25;;;;;;;0.75;0.20;;;;;;;;;;5094312;28;19904;-58
2021/07/06 10:40:51;;;;;;;1.80;0.55;;;;;;;;;;5094206;28;20032;-58
2021/07/06 10:43:49;;;;;;;0.93;0.40;;;;;;;;;;5094813;28;20392;-58
2021/07/06 10:46:21;;;;;;;1.10;0.43;;;;;;;;;;5092311;28;20067;-58
2021/07/06 10:48:47;;;;;;;1.33;0.28;;;;;;;;;;5094013;28;20012;-58
2021/07/06 10:51:31;;;;;;;1.92;0.68;;;;;;;;;;5094348;28;20057;-58
2021/07/06 10:54:14;;;;;;;1.13;0.60;;;;;;;;;;5092825;28;20055;-58
2021/07/06 10:56:44;;;;;;;0.88;0.40;;;;;;;;;;5093387;28;20020;-58
2021/07/06 10:59:26;;;;;;;0.90;0.47;;;;;;;;;;5093855;28;20047;-58
2021/07/06 11:01:54;;;;;;;1.48;0.55;;;;;;;;;;5094364;28;20030;-58
2021/07/06 11:04:51;;;;;;;2.17;0.47;;;;;;;;;;5093994;28;20024;-58
2021/07/06 11:07:42;;;;;;;0.77;0.40;;;;;;;;;;5093934;28;20052;-58
2021/07/06 11:10:09;;;;;;;0.45;0.20;;;;;;;;;;5094621;28;20396;-58
2021/07/06 11:12:46;;;;;;;0.52;0.20;;;;;;;;;;5094398;28;20111;-58
2021/07/06 11:15:12;;;;;;;0.95;0.30;;;;;;;;;;5093830;28;20059;-58
2021/07/06 11:17:42;;;;;;;0.95;0.32;;;;;;;;;;5092523;28;20020;-58
2021/07/06 11:20:10;;;;;;;1.10;0.45;;;;;;;;;;5092981;28;20385;-58
2021/07/06 11:22:55;;;;;;;1.05;0.40;;;;;;;;;;5093391;28;20474;-58
2021/07/06 11:25:24;;;;;;;0.40;0.20;;;;;;;;;;5094157;28;20024;-58
2021/07/06 11:28:00;;;;;;;1.38;0.32;;;;;;;;;;5093417;28;20020;-58
2021/07/06 11:30:30;;;;;;;0.82;0.30;;;;;;;;;;5093562;28;20032;-58
2021/07/06 11:33:14;;;;;;;1.02;0.40;;;;;;;;;;5094133;28;20024;-58
2021/07/06 11:35:45;;;;;;;0.30;0.10;;;;;;;;;;5093490;28;20024;-58
2021/07/06 11:38:10;;;;;;;;;;;;;;;;;;5094010;28;20028;-58
2021/07/06 11:40:38;;;;;;;0.40;0.13;;;;;;;;;;5093569;28;19926;-58
2021/07/06 11:43:04;;;;;;;0.63;0.15;;;;;;;;;;5094122;28;20583;-58
2021/07/06 11:45:31;;;;;;;0.60;0.30;;;;;;;;;;5093548;28;20020;-58
2021/07/06 11:48:08;;;;;;;0.60;0.30;;;;;;;;;;5093868;28;20072;-58
2021/07/06 11:50:34;;;;;;;1.10;0.25;;;;;;;;;;5093545;28;20028;-59
2021/07/06 11:53:00;;;;;;;1.75;0.55;;;;;;;;;;5093475;28;20024;-59
2021/07/06 11:55:27;;;;;;;0.80;0.25;;;;;;;;;;5092222;28;20020;-59
2021/07/06 11:57:54;;;;;;;0.93;0.20;;;;;;;;;;5096257;28;20024;-59
2021/07/06 12:00:21;;;;;;;0.75;0.20;;;;;;;;;;5097275;28;20024;-59
2021/07/06 12:02:47;;;;;;;0.57;0.28;;;;;;;;;;5097351;28;20053;-59
2021/07/06 12:05:13;;;;;;;0.45;0.22;;;;;;;;;;5097193;28;20439;-59
2021/07/06 12:07:39;;;;;;;0.88;0.20;;;;;;;;;;5097362;28;20020;-59
2021/07/06 12:10:06;;;;;;;0.85;0.35;;;;;;;;;;5097291;28;20089;-59
2021/07/06 12:12:32;;;;;;;0.60;0.20;;;;;;;;;;5097047;28;20476;-59
2021/07/06 12:14:58;;;;;;;0.10;0.10;;;;;;;;;;5096739;28;20028;-59
2021/07/06 12:17:25;;;;;;;0.57;0.30;;;;;;;;;;5095866;28;20024;-59
2021/07/06 12:19:51;;;;;;;0.73;0.28;;;;;;;;;;5097241;28;20020;-59
2021/07/06 12:22:21;;;;;;;0.17;0.08;;;;;;;;;;5096488;28;20027;-59
2021/07/06 12:24:47;;;;;;;0.80;0.30;;;;;;;;;;5096886;28;20061;-59
2021/07/06 12:27:15;;;;;;;0.65;0.25;;;;;;;;;;5096461;28;20381;-59
2021/07/06 12:29:42;;;;;;;0.88;0.30;;;;;;;;;;5096662;28;20016;-59
2021/07/06 12:32:12;;;;;;;0.47;0.17;;;;;;;;;;5097011;28;20025;-59
2021/07/06 12:34:39;;;;;;;1.75;0.30;;;;;;;;;;5096385;28;20541;-59
2021/07/06 12:37:08;;;;;;;0.43;0.20;;;;;;;;;;5096872;28;20024;-59
2021/07/06 12:39:35;;;;;;;0.60;0.28;;;;;;;;;;5095406;28;20107;-59
2021/07/06 12:42:06;;;;;;;0.75;0.25;;;;;;;;;;5095874;28;20020;-59
2021/07/06 12:44:34;;;;;;;1.38;0.73;;;;;;;;;;5096456;28;20028;-59
2021/07/06 12:47:15;;;;;;;0.73;0.30;;;;;;;;;;5096370;28;20069;-59
2021/07/06 12:49:46;;;;;;;0.65;0.30;;;;;;;;;;5096814;28;20412;-59
2021/07/06 12:52:12;;;;;;;0.47;0.30;;;;;;;;;;5097160;28;20024;-59
2021/07/06 12:54:38;;;;;;;0.70;0.30;;;;;;;;;;5095892;28;20347;-59
2021/07/06 12:57:05;;;;;;;1.02;0.30;;;;;;;;;;5096464;28;20024;-60
2021/07/06 12:59:31;;;;;;;1.20;0.30;;;;;;;;;;5096393;28;20024;-59
2021/07/06 13:01:58;;;;;;;0.75;0.30;;;;;;;;;;5096384;28;20081;-60
2021/07/06 13:04:43;;;;;;;0.55;0.25;;;;;;;;;;5095930;28;20386;-60
2021/07/06 13:07:09;;;;;;;0.35;0.20;;;;;;;;;;5095828;28;20032;-60
2021/07/06 13:09:35;;;;;;;0.75;0.30;;;;;;;;;;5095318;28;20034;-60
2021/07/06 13:12:12;;;;;;;0.63;0.30;;;;;;;;;;5096227;28;20038;-60
2021/07/06 13:14:38;;;;;;;0.93;0.50;;;;;;;;;;5095918;28;20024;-60
2021/07/06 13:17:21;;;;;;;1.02;0.20;;;;;;;;;;5095792;28;20035;-60
2021/07/06 13:19:58;;;;;;;0.80;0.30;;;;;;;;;;5095737;28;20090;-60
2021/07/06 13:22:24;;;;;;;0.50;0.20;;;;;;;;;;5095438;28;20486;-60
2021/07/06 13:24:50;;;;;;;0.70;0.30;;;;;;;;;;5095632;28;20035;-60
2021/07/06 13:27:16;;;;;;;0.57;0.32;;;;;;;;;;5095511;28;20115;-60
2021/07/06 13:29:42;;;;;;;0.63;0.25;;;;;;;;;;5094749;28;20050;-60
2021/07/06 13:32:08;;;;;;;1.05;0.40;;;;;;;;;;5095533;28;20028;-60
2021/07/06 13:34:34;;;;;;;0.82;0.30;;;;;;;;;;5095078;28;20020;-60
2021/07/06 13:37:00;;;;;;;0.60;0.35;;;;;;;;;;5095371;28;20044;-60
2021/07/06 13:39:26;;;;;;;0.45;0.20;;;;;;;;;;5095648;28;20024;-60
2021/07/06 13:41:52;;;;;;;1.52;0.40;;;;;;;;;;5095217;28;20027;-60
2021/07/06 13:44:18;;;;;;;0.85;0.50;;;;;;;;;;5095270;28;20046;-60
2021/07/06 13:46:44;;;;;;;2.92;0.70;;;;;;;;;;5095706;28;20024;-60
2021/07/06 13:49:10;;;;;;;0.85;0.40;;;;;;;;;;5094852;28;20024;-60
2021/07/06 13:51:36;;;;;;;1.00;0.47;;;;;;;;;;5095436;28;20020;-60
2021/07/06 13:54:06;;;;;;;1.30;0.63;;;;;;;;;;5095023;28;20035;-60
2021/07/06 13:56:32;;;;;;;1.87;0.60;;;;;;;;;;5095294;28;20016;-60
2021/07/06 13:58:58;;;;;;;2.60;0.85;;;;;;;;;;5094744;28;20019;-60
2021/07/06 14:01:24;;;;;;;1.05;0.55;;;;;;;;;;5095677;28;20209;-60
2021/07/06 14:03:50;;;;;;;4.10;0.65;;;;;;;;;;5094799;28;20024;-60
2021/07/06 14:06:17;;;;;;;1.48;0.73;;;;;;;;;;5094534;28;20485;-60
2021/07/06 14:08:45;;;;;;;1.20;0.50;;;;;;;;;;5094926;28;20032;-60
2021/07/06 14:11:13;;;;;;;1.70;0.75;;;;;;;;;;5095092;28;20071;-60
2021/07/06 14:13:39;;;;;;;1.88;0.82;;;;;;;;;;5093506;28;20350;-60
2021/07/06 14:16:05;;;;;;;1.27;0.43;;;;;;;;;;5095242;28;20058;-60
2021/07/06 14:18:31;;;;;;;0.77;0.40;;;;;;;;;;5094643;28;20060;-60
2021/07/06 14:20:57;;;;;;;2.75;0.70;;;;;;;;;;5094155;28;20046;-60
2021/07/06 14:23:23;;;;;;;2.72;0.63;;;;;;;;;;5094618;28;20016;-60
2021/07/06 14:25:49;;;;;;;2.72;0.98;;;;;;;;;;5094816;28;20534;-60
2021/07/06 14:28:16;;;;;;;1.13;0.60;;;;;;;;;;5094483;28;20020;-60
2021/07/06 14:30:43;;;;;;;1.75;0.73;;;;;;;;;;5094070;28;20565;-60
2021/07/06 14:33:09;;;;;;;1.63;0.80;;;;;;;;;;5094794;28;20028;-60
2021/07/06 14:35:36;;;;;;;1.83;0.80;;;;;;;;;;5094018;28;20024;-60
2021/07/06 14:38:03;;;;;;;1.42;0.70;;;;;;;;;;5094012;28;20458;-60
2021/07/06 14:40:29;;;;;;;1.00;0.50;;;;;;;;;;5094652;28;20500;-60
2021/07/06 14:42:56;;;;;;;1.63;0.65;;;;;;;;;;5094918;28;20036;-60
2021/07/06 14:45:22;;;;;;;1.60;0.80;;;;;;;;;;5094476;28;20031;-60